sensor_id;sensor_type;location;lat;lon;timestamp;pressure;altitude;pressure_sealevel;temperature;humidity
7180;BME280;3631;42.152;24.756;2023-03-20T00:01:27;99869.66;;;8.77;92.14
7180;BME280;3631;42.152;24.756;2023-03-20T00:04:26;99862.75;;;8.78;92.47
7180;BME280;3631;42.152;24.756;2023-03-20T00:07:26;99854.16;;;8.74;92.52
7180;BME280;3631;42.152;24.756;2023-03-20T00:10:15;99847.38;;;8.67;93.91
7180;BME280;3631;42.152;24.756;2023-03-20T00:13:23;99852.75;;;8.55;94.40
7180;BME280;3631;42.152;24.756;2023-03-20T00:16:28;99842.22;;;8.67;93.91
7180;BME280;3631;42.152;24.756;2023-03-20T00:19:59;99840.38;;;8.73;92.64
7180;BME280;3631;42.152;24.756;2023-03-20T00:22:59;99835.00;;;8.86;92.39
7180;BME280;3631;42.152;24.756;2023-03-20T00:25:53;99820.28;;;8.88;92.10
7180;BME280;3631;42.152;24.756;2023-03-20T00:28:53;99831.47;;;8.90;91.60
7180;BME280;3631;42.152;24.756;2023-03-20T00:31:43;99829.75;;;8.90;91.68
7180;BME280;3631;42.152;24.756;2023-03-20T00:34:37;99831.47;;;8.90;91.34
7180;BME280;3631;42.152;24.756;2023-03-20T00:37:36;99831.38;;;8.94;90.40
7180;BME280;3631;42.152;24.756;2023-03-20T00:40:37;99812.56;;;8.85;90.61
7180;BME280;3631;42.152;24.756;2023-03-20T00:43:34;99830.59;;;8.91;91.05
7180;BME280;3631;42.152;24.756;2023-03-20T00:46:52;99816.91;;;8.83;91.85
7180;BME280;3631;42.152;24.756;2023-03-20T00:50:05;99823.03;;;8.79;91.89
7180;BME280;3631;42.152;24.756;2023-03-20T00:52:59;99823.03;;;8.80;92.36
7180;BME280;3631;42.152;24.756;2023-03-20T00:56:06;99821.50;;;8.68;92.59
7180;BME280;3631;42.152;24.756;2023-03-20T00:59:10;99814.84;;;8.51;93.63
7180;BME280;3631;42.152;24.756;2023-03-20T01:02:17;99818.31;;;8.50;94.30
7180;BME280;3631;42.152;24.756;2023-03-20T01:05:17;99817.59;;;8.40;95.54
7180;BME280;3631;42.152;24.756;2023-03-20T01:08:09;99815.94;;;8.36;95.96
7180;BME280;3631;42.152;24.756;2023-03-20T01:11:05;99807.25;;;8.42;96.88
7180;BME280;3631;42.152;24.756;2023-03-20T01:13:58;99809.97;;;8.34;97.72
7180;BME280;3631;42.152;24.756;2023-03-20T01:17:18;99800.38;;;8.39;99.11
7180;BME280;3631;42.152;24.756;2023-03-20T01:20:25;99804.69;;;8.38;99.64
7180;BME280;3631;42.152;24.756;2023-03-20T01:23:21;99806.53;;;8.30;100.00
7180;BME280;3631;42.152;24.756;2023-03-20T01:26:49;99796.97;;;8.35;99.90
7180;BME280;3631;42.152;24.756;2023-03-20T01:29:59;99793.59;;;8.32;99.88
7180;BME280;3631;42.152;24.756;2023-03-20T01:33:05;99788.34;;;8.36;100.00
7180;BME280;3631;42.152;24.756;2023-03-20T01:35:50;99795.31;;;8.30;99.54
7180;BME280;3631;42.152;24.756;2023-03-20T01:38:53;99798.69;;;8.36;99.84
7180;BME280;3631;42.152;24.756;2023-03-20T01:41:45;99797.78;;;8.41;98.48
7180;BME280;3631;42.152;24.756;2023-03-20T01:48:00;99790.94;;;8.36;98.23
7180;BME280;3631;42.152;24.756;2023-03-20T01:51:25;99783.38;;;8.23;100.00
7180;BME280;3631;42.152;24.756;2023-03-20T01:54:12;99780.00;;;8.16;100.00
7180;BME280;3631;42.152;24.756;2023-03-20T01:57:14;99782.75;;;8.04;100.00
7180;BME280;3631;42.152;24.756;2023-03-20T02:00:26;99763.81;;;8.03;100.00
7180;BME280;3631;42.152;24.756;2023-03-20T02:03:32;99783.63;;;8.05;100.00
7180;BME280;3631;42.152;24.756;2023-03-20T02:06:40;99782.84;;;7.99;100.00
7180;BME280;3631;42.152;24.756;2023-03-20T02:09:32;99776.91;;;7.93;100.00
7180;BME280;3631;42.152;24.756;2023-03-20T02:12:22;99792.69;;;7.72;100.00
7180;BME280;3631;42.152;24.756;2023-03-20T02:15:10;99789.38;;;7.62;100.00
7180;BME280;3631;42.152;24.756;2023-03-20T02:18:28;99788.69;;;7.46;100.00
7180;BME280;3631;42.152;24.756;2023-03-20T02:22:06;99784.34;;;7.50;100.00
7180;BME280;3631;42.152;24.756;2023-03-20T02:32:14;99772.31;;;7.49;100.00
7180;BME280;3631;42.152;24.756;2023-03-20T02:35:34;99780.34;;;7.23;100.00
7180;BME280;3631;42.152;24.756;2023-03-20T02:38:42;99776.16;;;7.11;100.00
7180;BME280;3631;42.152;24.756;2023-03-20T02:41:55;99771.00;;;7.11;100.00
7180;BME280;3631;42.152;24.756;2023-03-20T02:45:04;99777.03;;;7.13;100.00
7180;BME280;3631;42.152;24.756;2023-03-20T02:51:38;99763.53;;;6.87;99.03
7180;BME280;3631;42.152;24.756;2023-03-20T02:54:44;99762.69;;;6.85;99.38
7180;BME280;3631;42.152;24.756;2023-03-20T02:57:54;99771.19;;;6.96;98.01
7180;BME280;3631;42.152;24.756;2023-03-20T03:00:57;99766.94;;;6.89;98.75
7180;BME280;3631;42.152;24.756;2023-03-20T03:03:55;99770.44;;;6.85;98.61
7180;BME280;3631;42.152;24.756;2023-03-20T03:06:50;99764.56;;;6.71;98.71
7180;BME280;3631;42.152;24.756;2023-03-20T03:09:47;99764.63;;;6.65;100.00
7180;BME280;3631;42.152;24.756;2023-03-20T03:12:54;99767.19;;;6.65;99.90
7180;BME280;3631;42.152;24.756;2023-03-20T03:15:56;99771.53;;;6.60;100.00
7180;BME280;3631;42.152;24.756;2023-03-20T03:18:49;99766.38;;;6.56;100.00
7180;BME280;3631;42.152;24.756;2023-03-20T03:21:53;99757.88;;;6.50;100.00
7180;BME280;3631;42.152;24.756;2023-03-20T03:24:53;99758.66;;;6.56;100.00
7180;BME280;3631;42.152;24.756;2023-03-20T03:27:45;99760.41;;;6.54;99.60
7180;BME280;3631;42.152;24.756;2023-03-20T03:30:46;99771.66;;;6.44;100.00
7180;BME280;3631;42.152;24.756;2023-03-20T03:33:56;99763.19;;;6.30;100.00
7180;BME280;3631;42.152;24.756;2023-03-20T03:37:00;99761.56;;;6.18;100.00
7180;BME280;3631;42.152;24.756;2023-03-20T03:40:04;99761.59;;;6.11;100.00
7180;BME280;3631;42.152;24.756;2023-03-20T03:42:55;99757.34;;;6.07;100.00
7180;BME280;3631;42.152;24.756;2023-03-20T03:46:00;99765.91;;;6.09;100.00
7180;BME280;3631;42.152;24.756;2023-03-20T03:49:03;99763.19;;;6.27;100.00
7180;BME280;3631;42.152;24.756;2023-03-20T03:52:02;99752.97;;;6.16;100.00
7180;BME280;3631;42.152;24.756;2023-03-20T03:54:54;99761.50;;;6.23;100.00
7180;BME280;3631;42.152;24.756;2023-03-20T03:57:43;99757.28;;;6.10;100.00
7180;BME280;3631;42.152;24.756;2023-03-20T04:00:35;99770.22;;;6.07;100.00
7180;BME280;3631;42.152;24.756;2023-03-20T04:03:36;99766.00;;;5.97;100.00
7180;BME280;3631;42.152;24.756;2023-03-20T04:06:21;99766.88;;;5.90;100.00
7180;BME280;3631;42.152;24.756;2023-03-20T04:08:58;99779.78;;;5.80;100.00
7180;BME280;3631;42.152;24.756;2023-03-20T04:11:33;99766.09;;;5.75;100.00
7180;BME280;3631;42.152;24.756;2023-03-20T04:14:02;99766.97;;;5.67;100.00
7180;BME280;3631;42.152;24.756;2023-03-20T04:16:37;99768.69;;;5.66;100.00
7180;BME280;3631;42.152;24.756;2023-03-20T04:19:11;99774.75;;;5.64;100.00
7180;BME280;3631;42.152;24.756;2023-03-20T04:21:56;99765.31;;;5.57;100.00
7180;BME280;3631;42.152;24.756;2023-03-20T04:24:34;99771.31;;;5.62;100.00
7180;BME280;3631;42.152;24.756;2023-03-20T04:27:14;99771.31;;;5.63;100.00
7180;BME280;3631;42.152;24.756;2023-03-20T04:30:00;99768.69;;;5.68;100.00
7180;BME280;3631;42.152;24.756;2023-03-20T04:32:53;99765.31;;;5.55;100.00
7180;BME280;3631;42.152;24.756;2023-03-20T04:35:36;99761.94;;;5.44;100.00
7180;BME280;3631;42.152;24.756;2023-03-20T04:38:38;99767.06;;;5.44;100.00
7180;BME280;3631;42.152;24.756;2023-03-20T04:41:25;99766.22;;;5.43;100.00
7180;BME280;3631;42.152;24.756;2023-03-20T04:44:20;99768.75;;;5.57;100.00
7180;BME280;3631;42.152;24.756;2023-03-20T04:47:06;99775.56;;;5.67;100.00
7180;BME280;3631;42.152;24.756;2023-03-20T04:49:57;99770.41;;;5.67;100.00
7180;BME280;3631;42.152;24.756;2023-03-20T04:52:51;99773.78;;;5.81;100.00
7180;BME280;3631;42.152;24.756;2023-03-20T04:55:32;99772.00;;;5.97;100.00
7180;BME280;3631;42.152;24.756;2023-03-20T04:58:03;99773.59;;;6.12;99.03
7180;BME280;3631;42.152;24.756;2023-03-20T05:00:56;99785.56;;;6.25;97.73
7180;BME280;3631;42.152;24.756;2023-03-20T05:03:35;99783.84;;;6.21;97.71
7180;BME280;3631;42.152;24.756;2023-03-20T05:06:22;99783.84;;;6.24;97.65
7180;BME280;3631;42.152;24.756;2023-03-20T05:08:53;99781.16;;;6.39;97.19
7180;BME280;3631;42.152;24.756;2023-03-20T05:11:26;99783.53;;;6.64;95.14
7180;BME280;3631;42.152;24.756;2023-03-20T05:13:57;99785.09;;;6.80;93.59
7180;BME280;3631;42.152;24.756;2023-03-20T05:16:44;99783.16;;;7.00;92.39
7180;BME280;3631;42.152;24.756;2023-03-20T05:19:26;99785.56;;;7.21;91.29
7180;BME280;3631;42.152;24.756;2023-03-20T05:22:07;99783.50;;;7.49;88.88
7180;BME280;3631;42.152;24.756;2023-03-20T05:24:50;99789.28;;;7.68;86.80
7180;BME280;3631;42.152;24.756;2023-03-20T05:27:27;99778.72;;;7.86;85.60
7180;BME280;3631;42.152;24.756;2023-03-20T05:30:18;99784.25;;;8.77;81.78
7180;BME280;3631;42.152;24.756;2023-03-20T05:33:16;99788.84;;;10.34;73.21
7180;BME280;3631;42.152;24.756;2023-03-20T05:36:12;99788.69;;;12.00;64.52
7180;BME280;3631;42.152;24.756;2023-03-20T05:38:49;99793.59;;;13.17;57.80
7180;BME280;3631;42.152;24.756;2023-03-20T05:41:25;99804.56;;;14.20;53.76
7180;BME280;3631;42.152;24.756;2023-03-20T05:44:05;99799.50;;;15.41;50.44
7180;BME280;3631;42.152;24.756;2023-03-20T05:47:06;99810.47;;;16.45;46.72
7180;BME280;3631;42.152;24.756;2023-03-20T05:50:03;99803.38;;;17.50;44.28
7180;BME280;3631;42.152;24.756;2023-03-20T05:53:06;99807.47;;;18.67;41.57
7180;BME280;3631;42.152;24.756;2023-03-20T05:56:01;99807.34;;;18.39;41.03
7180;BME280;3631;42.152;24.756;2023-03-20T05:59:06;99806.97;;;19.50;39.17
7180;BME280;3631;42.152;24.756;2023-03-20T06:02:12;99801.31;;;19.71;38.29
7180;BME280;3631;42.152;24.756;2023-03-20T06:05:06;99803.00;;;19.72;38.35
7180;BME280;3631;42.152;24.756;2023-03-20T06:07:43;99807.28;;;20.56;37.61
7180;BME280;3631;42.152;24.756;2023-03-20T06:10:13;99811.00;;;21.06;36.87
7180;BME280;3631;42.152;24.756;2023-03-20T06:13:00;99802.06;;;21.59;35.38
7180;BME280;3631;42.152;24.756;2023-03-20T06:15:42;99802.72;;;21.25;36.05
7180;BME280;3631;42.152;24.756;2023-03-20T06:18:19;99807.09;;;21.12;35.83
7180;BME280;3631;42.152;24.756;2023-03-20T06:21:18;99811.91;;;21.32;35.64
7180;BME280;3631;42.152;24.756;2023-03-20T06:24:17;99810.25;;;22.18;34.38
7180;BME280;3631;42.152;24.756;2023-03-20T06:27:25;99808.06;;;22.36;33.87
7180;BME280;3631;42.152;24.756;2023-03-20T06:30:25;99811.81;;;22.57;33.37
7180;BME280;3631;42.152;24.756;2023-03-20T06:36:54;99799.75;;;22.53;33.47
7180;BME280;3631;42.152;24.756;2023-03-20T06:39:51;99800.72;;;22.76;33.31
7180;BME280;3631;42.152;24.756;2023-03-20T06:42:41;99805.06;;;23.58;32.13
7180;BME280;3631;42.152;24.756;2023-03-20T06:45:32;99801.69;;;23.56;32.08
7180;BME280;3631;42.152;24.756;2023-03-20T06:48:41;99797.78;;;23.49;32.06
7180;BME280;3631;42.152;24.756;2023-03-20T06:51:53;99796.91;;;23.37;32.41
7180;BME280;3631;42.152;24.756;2023-03-20T06:55:06;99801.66;;;24.12;31.13
7180;BME280;3631;42.152;24.756;2023-03-20T06:57:54;99796.81;;;24.17;30.90
7180;BME280;3631;42.152;24.756;2023-03-20T07:00:54;99802.25;;;24.04;31.23
7180;BME280;3631;42.152;24.756;2023-03-20T07:03:52;99791.44;;;23.51;31.82
7180;BME280;3631;42.152;24.756;2023-03-20T07:06:53;99791.38;;;24.18;30.99
7180;BME280;3631;42.152;24.756;2023-03-20T07:09:53;99794.16;;;24.17;30.99
7180;BME280;3631;42.152;24.756;2023-03-20T07:15:58;99794.47;;;23.80;31.26
7180;BME280;3631;42.152;24.756;2023-03-20T07:18:49;99800.09;;;23.98;31.44
7180;BME280;3631;42.152;24.756;2023-03-20T07:21:44;99805.72;;;24.38;30.95
7180;BME280;3631;42.152;24.756;2023-03-20T07:24:49;99798.47;;;24.40;31.03
7180;BME280;3631;42.152;24.756;2023-03-20T07:27:40;99790.22;;;24.86;30.84
7180;BME280;3631;42.152;24.756;2023-03-20T07:30:35;99795.31;;;25.82;29.70
7180;BME280;3631;42.152;24.756;2023-03-20T07:33:42;99789.72;;;25.34;30.02
7180;BME280;3631;42.152;24.756;2023-03-20T07:36:31;99785.56;;;25.41;30.19
7180;BME280;3631;42.152;24.756;2023-03-20T07:39:37;99790.09;;;25.71;29.52
7180;BME280;3631;42.152;24.756;2023-03-20T07:42:52;99772.94;;;24.28;31.45
7180;BME280;3631;42.152;24.756;2023-03-20T07:45:52;99769.94;;;24.10;31.76
7180;BME280;3631;42.152;24.756;2023-03-20T07:48:46;99773.78;;;24.60;31.43
7180;BME280;3631;42.152;24.756;2023-03-20T07:51:42;99776.00;;;24.55;31.21
7180;BME280;3631;42.152;24.756;2023-03-20T07:54:35;99772.38;;;24.56;31.29
7180;BME280;3631;42.152;24.756;2023-03-20T07:57:51;99777.66;;;24.36;31.72
7180;BME280;3631;42.152;24.756;2023-03-20T08:00:49;99779.63;;;24.00;32.01
7180;BME280;3631;42.152;24.756;2023-03-20T08:03:19;99764.31;;;23.59;32.68
7180;BME280;3631;42.152;24.756;2023-03-20T08:06:02;99766.66;;;22.48;34.26
7180;BME280;3631;42.152;24.756;2023-03-20T08:08:57;99766.28;;;21.55;35.40
7180;BME280;3631;42.152;24.756;2023-03-20T08:11:49;99754.72;;;20.26;37.79
7180;BME280;3631;42.152;24.756;2023-03-20T08:14:41;99750.59;;;19.39;39.91
7180;BME280;3631;42.152;24.756;2023-03-20T08:17:53;99748.38;;;18.89;41.20
7180;BME280;3631;42.152;24.756;2023-03-20T08:21:06;99746.91;;;17.92;43.20
7180;BME280;3631;42.152;24.756;2023-03-20T08:24:07;99742.50;;;17.43;45.03
7180;BME280;3631;42.152;24.756;2023-03-20T08:27:01;99744.34;;;17.09;45.63
7180;BME280;3631;42.152;24.756;2023-03-20T08:30:06;99737.88;;;16.47;47.52
7180;BME280;3631;42.152;24.756;2023-03-20T08:32:51;99741.63;;;16.24;48.34
7180;BME280;3631;42.152;24.756;2023-03-20T08:35:27;99742.53;;;16.23;48.99
7180;BME280;3631;42.152;24.756;2023-03-20T08:38:03;99729.19;;;16.27;48.65
7180;BME280;3631;42.152;24.756;2023-03-20T08:40:48;99732.97;;;16.22;49.54
7180;BME280;3631;42.152;24.756;2023-03-20T08:43:23;99740.38;;;16.14;50.03
7180;BME280;3631;42.152;24.756;2023-03-20T08:46:03;99729.69;;;16.00;49.93
7180;BME280;3631;42.152;24.756;2023-03-20T08:48:34;99724.47;;;15.81;49.92
7180;BME280;3631;42.152;24.756;2023-03-20T08:51:07;99729.00;;;15.77;50.13
7180;BME280;3631;42.152;24.756;2023-03-20T08:53:47;99718.91;;;16.06;49.92
7180;BME280;3631;42.152;24.756;2023-03-20T08:56:34;99712.91;;;16.04;49.66
7180;BME280;3631;42.152;24.756;2023-03-20T08:59:14;99720.03;;;16.19;49.51
7180;BME280;3631;42.152;24.756;2023-03-20T09:01:55;99719.81;;;16.23;50.23
7180;BME280;3631;42.152;24.756;2023-03-20T09:04:29;99710.94;;;16.26;50.55
7180;BME280;3631;42.152;24.756;2023-03-20T09:07:09;99704.41;;;16.34;50.20
7180;BME280;3631;42.152;24.756;2023-03-20T09:09:56;99706.56;;;16.61;49.49
7180;BME280;3631;42.152;24.756;2023-03-20T09:13:15;99702.19;;;16.44;49.88
7180;BME280;3631;42.152;24.756;2023-03-20T09:16:23;99708.41;;;16.42;49.83
7180;BME280;3631;42.152;24.756;2023-03-20T09:19:14;99708.50;;;16.23;50.18
7180;BME280;3631;42.152;24.756;2023-03-20T09:22:04;99699.31;;;16.31;50.70
7180;BME280;3631;42.152;24.756;2023-03-20T09:24:52;99698.63;;;16.28;49.98
7180;BME280;3631;42.152;24.756;2023-03-20T09:27:28;99702.00;;;16.30;49.33
7180;BME280;3631;42.152;24.756;2023-03-20T09:33:42;99689.38;;;16.38;49.22
7180;BME280;3631;42.152;24.756;2023-03-20T09:36:45;99696.09;;;16.44;48.21
7180;BME280;3631;42.152;24.756;2023-03-20T09:39:43;99687.53;;;16.40;47.31
7180;BME280;3631;42.152;24.756;2023-03-20T09:42:36;99673.19;;;16.30;47.65
7180;BME280;3631;42.152;24.756;2023-03-20T09:45:32;99679.31;;;16.65;47.50
7180;BME280;3631;42.152;24.756;2023-03-20T09:48:44;99669.38;;;16.72;48.29
7180;BME280;3631;42.152;24.756;2023-03-20T09:51:48;99664.75;;;16.77;47.97
7180;BME280;3631;42.152;24.756;2023-03-20T09:54:50;99658.81;;;16.73;47.80
7180;BME280;3631;42.152;24.756;2023-03-20T09:57:40;99658.28;;;16.66;48.50
7180;BME280;3631;42.152;24.756;2023-03-20T10:00:44;99654.56;;;16.88;48.64
7180;BME280;3631;42.152;24.756;2023-03-20T10:04:08;99633.34;;;16.92;48.39
7180;BME280;3631;42.152;24.756;2023-03-20T10:07:04;99654.56;;;16.88;49.32
7180;BME280;3631;42.152;24.756;2023-03-20T10:10:02;99643.91;;;16.91;49.06
7180;BME280;3631;42.152;24.756;2023-03-20T10:13:11;99635.84;;;16.94;48.97
7180;BME280;3631;42.152;24.756;2023-03-20T10:16:23;99633.22;;;16.94;48.81
7180;BME280;3631;42.152;24.756;2023-03-20T10:26:05;99613.75;;;17.15;49.24
7180;BME280;3631;42.152;24.756;2023-03-20T10:29:01;99612.53;;;17.05;48.85
7180;BME280;3631;42.152;24.756;2023-03-20T10:32:00;99615.44;;;17.32;48.90
7180;BME280;3631;42.152;24.756;2023-03-20T10:35:26;99602.81;;;17.38;49.36
7180;BME280;3631;42.152;24.756;2023-03-20T10:38:11;99601.06;;;17.39;49.70
7180;BME280;3631;42.152;24.756;2023-03-20T10:41:10;99596.94;;;17.66;48.83
7180;BME280;3631;42.152;24.756;2023-03-20T10:44:04;99586.25;;;17.69;48.42
7180;BME280;3631;42.152;24.756;2023-03-20T10:46:56;99579.88;;;17.89;48.10
7180;BME280;3631;42.152;24.756;2023-03-20T10:50:06;99572.75;;;17.91;47.38
7180;BME280;3631;42.152;24.756;2023-03-20T10:53:07;99560.78;;;18.01;47.50
7180;BME280;3631;42.152;24.756;2023-03-20T10:59:19;99557.81;;;18.22;45.87
7180;BME280;3631;42.152;24.756;2023-03-20T11:02:38;99555.75;;;18.41;44.33
7180;BME280;3631;42.152;24.756;2023-03-20T11:05:59;99557.34;;;18.59;43.88
7180;BME280;3631;42.152;24.756;2023-03-20T11:12:13;99539.91;;;18.28;43.43
7180;BME280;3631;42.152;24.756;2023-03-20T11:15:11;99510.91;;;18.16;43.58
7180;BME280;3631;42.152;24.756;2023-03-20T11:18:14;99526.19;;;18.23;43.93
7180;BME280;3631;42.152;24.756;2023-03-20T11:21:15;99511.66;;;18.32;43.88
7180;BME280;3631;42.152;24.756;2023-03-20T11:23:59;99514.09;;;18.35;43.36
7180;BME280;3631;42.152;24.756;2023-03-20T11:26:52;99513.94;;;18.38;42.73
7180;BME280;3631;42.152;24.756;2023-03-20T11:29:42;99509.03;;;18.46;42.63
7180;BME280;3631;42.152;24.756;2023-03-20T11:32:58;99494.22;;;18.45;42.27
7180;BME280;3631;42.152;24.756;2023-03-20T11:35:56;99489.03;;;18.43;42.47
7180;BME280;3631;42.152;24.756;2023-03-20T11:38:34;99479.66;;;18.39;42.17
7180;BME280;3631;42.152;24.756;2023-03-20T11:41:25;99477.13;;;18.38;42.07
7180;BME280;3631;42.152;24.756;2023-03-20T11:44:09;99478.44;;;18.45;42.50
7180;BME280;3631;42.152;24.756;2023-03-20T11:47:04;99468.50;;;18.36;42.15
7180;BME280;3631;42.152;24.756;2023-03-20T11:49:51;99459.84;;;18.34;42.93
7180;BME280;3631;42.152;24.756;2023-03-20T11:52:42;99471.41;;;18.45;42.88
7180;BME280;3631;42.152;24.756;2023-03-20T11:55:28;99454.88;;;18.29;42.54
7180;BME280;3631;42.152;24.756;2023-03-20T11:58:06;99454.69;;;18.46;43.35
7180;BME280;3631;42.152;24.756;2023-03-20T12:00:50;99448.53;;;18.62;43.14
7180;BME280;3631;42.152;24.756;2023-03-20T12:03:42;99447.28;;;18.67;43.36
7180;BME280;3631;42.152;24.756;2023-03-20T12:06:42;99446.50;;;18.79;43.14
7180;BME280;3631;42.152;24.756;2023-03-20T12:09:38;99431.31;;;18.70;43.65
7180;BME280;3631;42.152;24.756;2023-03-20T12:12:37;99428.13;;;18.65;43.59
7180;BME280;3631;42.152;24.756;2023-03-20T12:15:24;99426.44;;;18.64;43.69
7180;BME280;3631;42.152;24.756;2023-03-20T12:18:01;99430.47;;;18.70;42.83
7180;BME280;3631;42.152;24.756;2023-03-20T12:20:38;99426.97;;;18.83;42.86
7180;BME280;3631;42.152;24.756;2023-03-20T12:23:27;99426.31;;;18.80;42.01
7180;BME280;3631;42.152;24.756;2023-03-20T12:26:15;99430.47;;;18.97;40.83
7180;BME280;3631;42.152;24.756;2023-03-20T12:29:04;99425.78;;;19.02;42.11
7180;BME280;3631;42.152;24.756;2023-03-20T12:31:47;99426.19;;;18.96;42.41
7180;BME280;3631;42.152;24.756;2023-03-20T12:34:23;99419.75;;;19.00;42.50
7180;BME280;3631;42.152;24.756;2023-03-20T12:37:07;99417.00;;;19.15;41.17
7180;BME280;3631;42.152;24.756;2023-03-20T12:39:58;99414.69;;;19.23;39.85
7180;BME280;3631;42.152;24.756;2023-03-20T12:42:43;99410.06;;;19.27;39.28
7180;BME280;3631;42.152;24.756;2023-03-20T12:45:33;99402.69;;;19.32;39.25
7180;BME280;3631;42.152;24.756;2023-03-20T12:51:19;99402.09;;;19.41;42.08
7180;BME280;3631;42.152;24.756;2023-03-20T12:54:21;99399.59;;;19.40;42.71
7180;BME280;3631;42.152;24.756;2023-03-20T12:57:15;99391.63;;;19.54;41.79
7180;BME280;3631;42.152;24.756;2023-03-20T13:00:18;99381.44;;;19.62;41.99
7180;BME280;3631;42.152;24.756;2023-03-20T13:03:17;99377.63;;;19.79;42.14
7180;BME280;3631;42.152;24.756;2023-03-20T13:06:13;99384.38;;;19.96;41.40
7180;BME280;3631;42.152;24.756;2023-03-20T13:09:20;99376.47;;;20.08;39.65
7180;BME280;3631;42.152;24.756;2023-03-20T13:12:18;99375.91;;;20.16;38.75
7180;BME280;3631;42.152;24.756;2023-03-20T13:15:12;99368.66;;;20.07;38.54
7180;BME280;3631;42.152;24.756;2023-03-20T13:18:06;99369.06;;;20.01;39.23
7180;BME280;3631;42.152;24.756;2023-03-20T13:20:54;99370.75;;;20.14;39.21
7180;BME280;3631;42.152;24.756;2023-03-20T13:23:45;99366.50;;;20.24;38.55
7180;BME280;3631;42.152;24.756;2023-03-20T13:26:36;99357.22;;;20.31;38.60
7180;BME280;3631;42.152;24.756;2023-03-20T13:29:29;99366.81;;;20.33;38.82
7180;BME280;3631;42.152;24.756;2023-03-20T13:32:21;99355.75;;;20.27;38.72
7180;BME280;3631;42.152;24.756;2023-03-20T13:35:18;99357.44;;;20.28;38.60
7180;BME280;3631;42.152;24.756;2023-03-20T13:38:08;99349.75;;;20.25;38.72
7180;BME280;3631;42.152;24.756;2023-03-20T13:40:54;99336.88;;;20.21;38.26
7180;BME280;3631;42.152;24.756;2023-03-20T13:43:50;99349.66;;;20.40;37.30
7180;BME280;3631;42.152;24.756;2023-03-20T13:47:05;99329.78;;;20.34;38.33
7180;BME280;3631;42.152;24.756;2023-03-20T13:50:35;99339.84;;;20.29;39.68
7180;BME280;3631;42.152;24.756;2023-03-20T13:53:32;99339.50;;;20.34;39.15
7180;BME280;3631;42.152;24.756;2023-03-20T13:56:29;99332.44;;;20.34;37.30
7180;BME280;3631;42.152;24.756;2023-03-20T14:02:30;99330.78;;;20.20;37.41
7180;BME280;3631;42.152;24.756;2023-03-20T14:05:26;99319.94;;;20.12;38.29
7180;BME280;3631;42.152;24.756;2023-03-20T14:08:19;99327.03;;;19.99;39.13
7180;BME280;3631;42.152;24.756;2023-03-20T14:14:22;99303.41;;;20.10;37.50
7180;BME280;3631;42.152;24.756;2023-03-20T14:17:20;99302.25;;;20.02;39.93
7180;BME280;3631;42.152;24.756;2023-03-20T14:19:57;99301.22;;;20.04;40.76
7180;BME280;3631;42.152;24.756;2023-03-20T14:23:03;99290.00;;;20.13;40.67
7180;BME280;3631;42.152;24.756;2023-03-20T14:25:54;99294.84;;;20.19;40.56
7180;BME280;3631;42.152;24.756;2023-03-20T14:28:45;99279.38;;;20.15;41.00
7180;BME280;3631;42.152;24.756;2023-03-20T14:31:35;99274.81;;;20.17;40.99
7180;BME280;3631;42.152;24.756;2023-03-20T14:34:23;99275.69;;;20.17;39.96
7180;BME280;3631;42.152;24.756;2023-03-20T14:37:03;99280.78;;;20.08;39.22
7180;BME280;3631;42.152;24.756;2023-03-20T14:39:48;99278.25;;;20.06;38.87
7180;BME280;3631;42.152;24.756;2023-03-20T14:42:50;99274.88;;;20.04;38.73
7180;BME280;3631;42.152;24.756;2023-03-20T14:49:12;99267.16;;;20.01;39.53
7180;BME280;3631;42.152;24.756;2023-03-20T14:56:26;99261.31;;;19.98;38.37
7180;BME280;3631;42.152;24.756;2023-03-20T14:59:23;99260.94;;;20.02;38.36
7180;BME280;3631;42.152;24.756;2023-03-20T15:02:35;99259.72;;;19.95;38.70
7180;BME280;3631;42.152;24.756;2023-03-20T15:05:27;99251.47;;;20.00;38.03
7180;BME280;3631;42.152;24.756;2023-03-20T15:08:41;99242.66;;;19.88;37.57
7180;BME280;3631;42.152;24.756;2023-03-20T15:14:58;99255.13;;;19.86;37.98
7180;BME280;3631;42.152;24.756;2023-03-20T15:18:12;99254.47;;;19.82;38.39
7180;BME280;3631;42.152;24.756;2023-03-20T15:21:08;99260.91;;;19.78;38.22
7180;BME280;3631;42.152;24.756;2023-03-20T15:24:06;99241.78;;;19.64;38.37
7180;BME280;3631;42.152;24.756;2023-03-20T15:27:12;99254.69;;;19.67;38.42
7180;BME280;3631;42.152;24.756;2023-03-20T15:33:19;99260.59;;;19.70;37.68
7180;BME280;3631;42.152;24.756;2023-03-20T15:36:34;99262.19;;;19.60;37.94
7180;BME280;3631;42.152;24.756;2023-03-20T15:39:29;99255.66;;;19.53;38.05
7180;BME280;3631;42.152;24.756;2023-03-20T15:42:41;99244.16;;;19.41;37.37
7180;BME280;3631;42.152;24.756;2023-03-20T15:46:04;99263.91;;;19.48;37.37
7180;BME280;3631;42.152;24.756;2023-03-20T15:48:55;99262.59;;;19.41;37.92
7180;BME280;3631;42.152;24.756;2023-03-20T15:51:56;99254.06;;;19.38;38.14
7180;BME280;3631;42.152;24.756;2023-03-20T15:54:59;99256.91;;;19.35;38.53
7180;BME280;3631;42.152;24.756;2023-03-20T15:57:58;99255.03;;;19.24;38.83
7180;BME280;3631;42.152;24.756;2023-03-20T16:01:04;99259.22;;;19.14;39.01
7180;BME280;3631;42.152;24.756;2023-03-20T16:03:57;99265.63;;;19.10;39.37
7180;BME280;3631;42.152;24.756;2023-03-20T16:06:47;99265.97;;;19.05;38.73
7180;BME280;3631;42.152;24.756;2023-03-20T16:09:48;99276.97;;;18.98;38.80
7180;BME280;3631;42.152;24.756;2023-03-20T16:12:51;99279.47;;;18.86;39.61
7180;BME280;3631;42.152;24.756;2023-03-20T16:16:04;99284.59;;;18.75;40.37
7180;BME280;3631;42.152;24.756;2023-03-20T16:19:06;99283.63;;;18.64;41.05
7180;BME280;3631;42.152;24.756;2023-03-20T16:21:56;99285.03;;;18.55;41.47
7180;BME280;3631;42.152;24.756;2023-03-20T16:24:43;99278.50;;;18.48;41.73
7180;BME280;3631;42.152;24.756;2023-03-20T16:27:27;99282.47;;;18.41;41.77
7180;BME280;3631;42.152;24.756;2023-03-20T16:30:16;99284.75;;;18.33;42.02
7180;BME280;3631;42.152;24.756;2023-03-20T16:33:44;99291.94;;;18.17;41.97
7180;BME280;3631;42.152;24.756;2023-03-20T16:36:47;99293.16;;;18.11;42.11
7180;BME280;3631;42.152;24.756;2023-03-20T16:39:38;99298.06;;;18.03;42.50
7180;BME280;3631;42.152;24.756;2023-03-20T16:42:34;99296.28;;;17.89;43.04
7180;BME280;3631;42.152;24.756;2023-03-20T16:45:36;99295.16;;;17.79;43.66